createdAt,value
2019-04-04T00:01:18.561Z,82.44
2019-04-04T00:03:47.034Z,82.39
2019-04-04T00:06:15.532Z,82.42
2019-04-04T00:08:44.062Z,82.42
2019-04-04T00:11:14.216Z,82.35
2019-04-04T00:13:42.689Z,82.38
2019-04-04T00:16:11.157Z,82.43
2019-04-04T00:18:39.636Z,82.33
2019-04-04T00:21:08.103Z,82.46
2019-04-04T00:23:38.030Z,82.47
2019-04-04T00:26:07.049Z,82.66
2019-04-04T00:28:35.512Z,82.58
2019-04-04T00:31:04.042Z,82.38
2019-04-04T00:33:32.578Z,81.89
2019-04-04T00:36:02.758Z,81.33
2019-04-04T00:38:31.319Z,80.79
2019-04-04T00:40:59.804Z,80.59
2019-04-04T00:43:28.263Z,80.62
2019-04-04T00:45:56.752Z,80.50
2019-04-04T00:48:25.210Z,80.46
2019-04-04T00:50:53.693Z,80.23
2019-04-04T00:53:22.236Z,79.98
2019-04-04T00:55:50.764Z,79.83
2019-04-04T00:58:20.829Z,79.83
2019-04-04T01:00:49.558Z,79.66
2019-04-04T01:03:18.078Z,79.51
2019-04-04T01:05:46.562Z,79.51
2019-04-04T01:08:15.105Z,79.58
2019-04-04T01:10:43.571Z,79.54
2019-04-04T01:13:12.034Z,79.67
2019-04-04T01:15:40.657Z,79.69
2019-04-04T01:18:09.135Z,79.60
2019-04-04T01:20:37.596Z,79.43
2019-04-04T01:23:06.157Z,79.64
2019-04-04T01:25:34.790Z,79.60
2019-04-04T01:28:03.270Z,79.43
2019-04-04T01:30:31.809Z,79.45
2019-04-04T01:33:00.274Z,79.22
2019-04-04T01:35:28.737Z,79.03
2019-04-04T01:37:58.235Z,78.89
2019-04-04T01:40:27.284Z,78.72
2019-04-04T01:42:55.758Z,78.55
2019-04-04T01:45:24.247Z,78.43
2019-04-04T01:47:52.701Z,78.43
2019-04-04T01:50:22.903Z,78.28
2019-04-04T01:52:51.360Z,78.20
2019-04-04T01:55:19.849Z,78.00
2019-04-04T01:57:48.391Z,78.01
2019-04-04T02:00:17.000Z,78.01
2019-04-04T02:02:45.473Z,77.99
2019-04-04T02:05:13.995Z,77.86
2019-04-04T02:07:42.463Z,77.79
2019-04-04T02:10:11.395Z,77.83
2019-04-04T02:12:39.873Z,77.82
2019-04-04T02:15:13.930Z,77.59
2019-04-04T02:17:42.137Z,77.60
2019-04-04T02:20:10.749Z,77.40
2019-04-04T02:22:39.236Z,77.30
2019-04-04T02:25:08.096Z,77.33
2019-04-04T02:27:37.939Z,77.23
2019-04-04T02:30:07.525Z,77.06
2019-04-04T02:32:36.017Z,76.91
2019-04-04T02:35:10.040Z,76.72
2019-04-04T02:37:36.629Z,76.69
2019-04-04T02:40:09.158Z,76.69
2019-04-04T02:42:39.189Z,76.67
2019-04-04T02:45:08.645Z,76.61
2019-04-04T02:47:37.094Z,76.65
2019-04-04T02:50:07.100Z,76.71
2019-04-04T02:52:35.621Z,76.68
2019-04-04T02:55:04.829Z,76.63
2019-04-04T02:57:33.279Z,76.39
2019-04-04T03:00:01.964Z,76.60
2019-04-04T03:02:30.397Z,76.48
2019-04-04T03:04:58.962Z,76.44
2019-04-04T03:07:30.107Z,76.34
2019-04-04T03:09:57.837Z,76.04
2019-04-04T03:12:26.985Z,75.76
2019-04-04T03:14:55.679Z,75.70
2019-04-04T03:17:25.737Z,75.68
2019-04-04T03:19:54.284Z,75.85
2019-04-04T03:22:24.590Z,75.78
2019-04-04T03:24:52.999Z,75.95
2019-04-04T03:27:25.454Z,75.98
2019-04-04T03:29:51.778Z,76.03
2019-04-04T03:32:20.256Z,75.93
2019-04-04T03:34:51.174Z,75.92
2019-04-04T03:37:19.039Z,75.88
2019-04-04T03:39:51.914Z,75.93
2019-04-04T03:42:17.710Z,75.85
2019-04-04T03:44:46.217Z,75.77
2019-04-04T03:47:14.649Z,75.63
2019-04-04T03:49:43.142Z,75.57
2019-04-04T03:52:11.715Z,75.45
2019-04-04T03:54:41.075Z,75.46
2019-04-04T03:57:12.226Z,75.27
2019-04-04T03:59:39.765Z,75.14
2019-04-04T04:02:08.251Z,75.06
2019-04-04T04:05:00.506Z,75.24
2019-04-04T04:07:26.225Z,75.24
2019-04-04T04:09:59.278Z,75.21
2019-04-04T04:12:24.917Z,75.36
2019-04-04T04:14:54.776Z,75.49
2019-04-04T04:17:23.718Z,75.43
2019-04-04T04:19:52.357Z,75.58
2019-04-04T04:22:20.821Z,75.75
2019-04-04T04:24:51.865Z,76.23
2019-04-04T04:27:20.335Z,76.48
2019-04-04T04:29:48.793Z,76.53
2019-04-04T04:32:21.274Z,76.60
2019-04-04T04:34:47.545Z,76.73
2019-04-04T04:37:19.855Z,76.80
2019-04-04T04:39:46.285Z,76.95
2019-04-04T04:42:14.746Z,76.94
2019-04-04T04:44:43.219Z,76.98
2019-04-04T04:47:11.680Z,77.01
2019-04-04T04:49:40.173Z,77.04
2019-04-04T04:52:08.691Z,77.08
2019-04-04T04:54:37.180Z,77.11
2019-04-04T04:57:05.643Z,77.13
2019-04-04T04:59:34.146Z,77.29
2019-04-04T05:02:02.740Z,77.20
2019-04-04T05:04:31.225Z,77.44
2019-04-04T05:06:59.751Z,77.46
2019-04-04T05:09:28.261Z,77.42
2019-04-04T05:11:56.729Z,77.47
2019-04-04T05:14:25.194Z,77.51
2019-04-04T05:16:53.681Z,77.62
2019-04-04T05:19:22.211Z,77.58
2019-04-04T05:21:50.715Z,77.78
2019-04-04T05:24:19.165Z,77.87
2019-04-04T05:26:47.676Z,77.93
2019-04-04T05:29:16.131Z,77.80
2019-04-04T05:31:44.613Z,77.82
2019-04-04T05:34:13.130Z,77.91
2019-04-04T05:36:41.633Z,77.88
2019-04-04T05:39:10.094Z,78.04
2019-04-04T05:41:38.580Z,77.94
2019-04-04T05:44:09.066Z,77.81
2019-04-04T05:46:38.412Z,77.82
2019-04-04T05:49:08.310Z,77.82
2019-04-04T05:51:37.055Z,77.78
2019-04-04T05:54:46.578Z,77.85
2019-04-04T05:57:15.082Z,77.78
2019-04-04T05:59:43.601Z,77.71
2019-04-04T06:02:12.221Z,77.69
2019-04-04T06:04:41.224Z,77.85
2019-04-04T06:07:09.706Z,77.91
2019-04-04T06:09:38.175Z,78.03
2019-04-04T06:12:06.729Z,78.03
2019-04-04T06:14:35.206Z,77.98
2019-04-04T06:17:05.094Z,78.00
2019-04-04T06:19:33.982Z,77.90
2019-04-04T06:22:02.535Z,77.98
2019-04-04T06:24:31.001Z,78.18
2019-04-04T06:26:59.557Z,78.19
2019-04-04T06:29:28.021Z,78.09
2019-04-04T06:31:59.988Z,78.30
2019-04-04T06:34:28.305Z,78.33
2019-04-04T06:36:56.793Z,78.41
2019-04-04T06:39:25.798Z,78.47
2019-04-04T06:41:54.339Z,78.37
2019-04-04T06:44:22.882Z,78.40
2019-04-04T06:46:53.468Z,78.35
2019-04-04T06:49:21.701Z,78.35
2019-04-04T06:51:50.191Z,78.34
2019-04-04T06:54:18.683Z,78.60
2019-04-04T06:56:47.168Z,78.59
2019-04-04T06:59:15.644Z,78.50
2019-04-04T07:01:44.147Z,78.56
2019-04-04T07:04:12.620Z,78.52
2019-04-04T07:06:41.979Z,78.33
2019-04-04T07:09:13.365Z,78.29
2019-04-04T07:11:41.170Z,78.25
2019-04-04T07:14:09.644Z,78.17
2019-04-04T07:16:38.104Z,78.11
2019-04-04T07:19:08.047Z,78.00
2019-04-04T07:21:36.746Z,78.03
2019-04-04T07:24:05.404Z,78.16
2019-04-04T07:26:33.863Z,78.10
2019-04-04T07:29:03.882Z,78.12
2019-04-04T07:31:33.947Z,78.10
2019-04-04T07:34:02.642Z,77.93
2019-04-04T07:36:33.171Z,77.93
2019-04-04T07:39:04.714Z,77.85
2019-04-04T07:41:33.192Z,77.81
2019-04-04T07:44:05.685Z,77.84
2019-04-04T07:46:45.373Z,77.80
2019-04-04T07:49:11.450Z,77.81
2019-04-04T07:51:39.925Z,77.78
2019-04-04T07:54:08.421Z,77.75
2019-04-04T07:56:37.077Z,77.71
2019-04-04T07:59:05.601Z,77.72
2019-04-04T08:01:34.129Z,77.66
2019-04-04T08:04:02.600Z,77.43
2019-04-04T08:06:31.158Z,77.54
2019-04-04T08:09:02.799Z,77.52
2019-04-04T08:11:32.683Z,77.56
2019-04-04T08:14:01.219Z,77.34
2019-04-04T08:16:29.891Z,77.29
2019-04-04T08:18:58.404Z,77.22
2019-04-04T08:21:26.872Z,77.11
2019-04-04T08:23:55.354Z,76.58
2019-04-04T08:26:23.836Z,76.76
2019-04-04T08:28:52.361Z,76.98
2019-04-04T08:31:22.346Z,76.32
2019-04-04T08:33:50.836Z,76.06
2019-04-04T08:36:19.304Z,76.19
2019-04-04T08:38:52.200Z,75.70
2019-04-04T08:41:20.907Z,75.79
2019-04-04T08:43:49.381Z,75.72
2019-04-04T08:46:19.838Z,75.79
2019-04-04T08:48:48.489Z,75.59
2019-04-04T08:51:16.964Z,75.10
2019-04-04T08:53:45.677Z,74.90
2019-04-04T08:56:14.160Z,74.62
2019-04-04T08:58:42.653Z,74.55
2019-04-04T09:01:11.181Z,74.65
2019-04-04T09:03:39.691Z,74.61
2019-04-04T09:06:08.162Z,74.63
2019-04-04T09:08:36.691Z,74.44
2019-04-04T09:11:05.235Z,74.55
2019-04-04T09:13:33.808Z,74.35
2019-04-04T09:16:02.355Z,73.97
2019-04-04T09:18:30.930Z,73.88
2019-04-04T09:20:59.392Z,73.66
2019-04-04T09:23:29.419Z,73.82
2019-04-04T09:26:05.523Z,73.85
2019-04-04T09:28:28.238Z,74.02
2019-04-04T09:30:56.699Z,74.26
2019-04-04T09:33:25.177Z,74.13
2019-04-04T09:35:53.815Z,73.90
2019-04-04T09:38:22.358Z,73.84
2019-04-04T09:40:50.973Z,73.81
2019-04-04T09:43:19.449Z,73.67
2019-04-04T09:45:47.995Z,73.83
2019-04-04T09:48:19.505Z,73.54
2019-04-04T09:50:47.962Z,73.73
2019-04-04T09:53:16.457Z,73.58
2019-04-04T09:55:44.965Z,73.81
2019-04-04T09:58:13.464Z,73.79
2019-04-04T10:00:42.163Z,73.71
2019-04-04T10:03:10.736Z,73.81
2019-04-04T10:05:39.225Z,73.71
2019-04-04T10:08:08.087Z,73.82
2019-04-04T10:10:36.629Z,73.77
2019-04-04T10:13:05.251Z,73.72
2019-04-04T10:15:33.726Z,73.59
2019-04-04T10:18:02.281Z,73.54
2019-04-04T10:20:30.756Z,73.42
2019-04-04T10:22:59.238Z,73.54
2019-04-04T10:25:29.354Z,73.57
2019-04-04T10:27:57.935Z,73.16
2019-04-04T10:30:26.472Z,73.03
2019-04-04T10:32:54.962Z,73.12
2019-04-04T10:35:23.510Z,73.05
2019-04-04T10:37:52.046Z,73.27
2019-04-04T10:40:20.672Z,73.31
2019-04-04T10:42:49.131Z,72.94
2019-04-04T10:45:17.751Z,73.17
2019-04-04T10:47:46.282Z,73.28
2019-04-04T10:50:15.620Z,72.81
2019-04-04T10:52:44.152Z,73.13
2019-04-04T10:55:13.062Z,73.35
2019-04-04T10:57:41.535Z,73.41
2019-04-04T11:00:10.860Z,73.17
2019-04-04T11:02:39.462Z,73.27
2019-04-04T11:05:08.074Z,73.22
2019-04-04T11:07:36.568Z,72.92
2019-04-04T11:10:07.266Z,72.88
2019-04-04T11:12:35.801Z,72.92
2019-04-04T11:15:10.766Z,72.92
2019-04-04T11:17:39.257Z,73.05
2019-04-04T11:20:07.960Z,72.99
2019-04-04T11:22:41.243Z,72.91
2019-04-04T11:25:09.952Z,73.11
2019-04-04T11:27:38.516Z,73.14
2019-04-04T11:30:15.434Z,73.29
2019-04-04T11:32:40.876Z,73.08
2019-04-04T11:35:11.240Z,72.68
2019-04-04T11:37:39.731Z,72.93
2019-04-04T11:40:08.539Z,72.51
2019-04-04T11:42:37.289Z,72.27
2019-04-04T11:45:06.214Z,72.50
2019-04-04T11:47:34.730Z,72.38
2019-04-04T11:50:03.948Z,72.18
2019-04-04T11:52:32.431Z,72.13
2019-04-04T11:55:01.688Z,72.28
2019-04-04T11:57:30.186Z,72.15
2019-04-04T11:59:58.647Z,72.15
2019-04-04T12:02:28.628Z,72.02
2019-04-04T12:04:57.918Z,71.98
2019-04-04T12:07:26.451Z,72.24
2019-04-04T12:10:06.879Z,72.24
2019-04-04T12:12:25.229Z,71.97
2019-04-04T12:14:53.839Z,71.94
2019-04-04T12:17:22.303Z,71.77
2019-04-04T12:19:52.332Z,71.87
2019-04-04T12:22:20.800Z,72.04
2019-04-04T12:24:49.535Z,71.93
2019-04-04T12:27:18.015Z,72.01
2019-04-04T12:29:48.683Z,71.94
2019-04-04T12:32:17.196Z,71.74
2019-04-04T12:34:45.998Z,71.72
2019-04-04T12:37:14.497Z,71.53
2019-04-04T12:39:45.167Z,71.80
2019-04-04T12:42:13.717Z,72.00
2019-04-04T12:44:42.203Z,71.94
2019-04-04T12:47:10.667Z,71.73
2019-04-04T12:49:41.223Z,71.83
2019-04-04T12:52:11.231Z,71.92
2019-04-04T12:54:39.723Z,71.62
2019-04-04T12:57:08.194Z,71.62
2019-04-04T12:59:36.689Z,71.61
2019-04-04T13:02:05.615Z,71.93
2019-04-04T13:04:34.080Z,71.50
2019-04-04T13:07:02.619Z,71.47
2019-04-04T13:09:31.079Z,70.49
2019-04-04T13:11:59.583Z,70.23
2019-04-04T13:14:29.579Z,69.86
2019-04-04T13:16:58.203Z,69.82
2019-04-04T13:19:26.699Z,69.75
2019-04-04T13:21:56.588Z,68.92
2019-04-04T13:24:25.063Z,68.56
2019-04-04T13:26:58.384Z,68.56
2019-04-04T13:29:26.947Z,68.79
2019-04-04T13:31:58.429Z,68.48
2019-04-04T13:34:29.707Z,67.96
2019-04-04T13:36:58.337Z,68.25
2019-04-04T13:39:26.837Z,68.61
2019-04-04T13:41:55.307Z,67.52
2019-04-04T13:44:26.847Z,67.54
2019-04-04T13:46:55.373Z,67.15
2019-04-04T13:49:24.599Z,67.16
2019-04-04T13:51:53.719Z,66.90
2019-04-04T13:54:23.853Z,67.05
2019-04-04T13:56:52.874Z,67.00
2019-04-04T13:59:23.906Z,67.15
2019-04-04T14:01:52.393Z,67.36
2019-04-04T14:04:24.456Z,66.80
2019-04-04T14:06:51.164Z,66.72
2019-04-04T14:09:19.719Z,67.21
2019-04-04T14:11:48.274Z,66.60
2019-04-04T14:14:16.793Z,66.40
2019-04-04T14:16:45.261Z,66.34
2019-04-04T14:19:13.772Z,66.68
2019-04-04T14:21:42.387Z,65.84
2019-04-04T14:24:13.853Z,65.63
2019-04-04T14:26:41.092Z,65.60
2019-04-04T14:29:09.565Z,65.30
2019-04-04T14:31:38.062Z,64.99
2019-04-04T14:34:06.567Z,65.07
2019-04-04T14:36:41.948Z,65.08
2019-04-04T14:39:10.432Z,64.94
2019-04-04T14:41:38.922Z,64.61
2019-04-04T14:44:07.424Z,64.60
2019-04-04T14:46:39.342Z,64.85
2019-04-04T14:49:07.706Z,64.49
2019-04-04T14:51:36.200Z,64.35
2019-04-04T14:54:06.248Z,64.52
2019-04-04T14:56:34.744Z,64.60
2019-04-04T14:59:06.084Z,65.01
2019-04-04T15:01:35.152Z,64.56
2019-04-04T15:04:03.849Z,64.55
2019-04-04T15:06:32.333Z,64.69
2019-04-04T15:09:01.357Z,64.28
2019-04-04T15:11:31.371Z,64.19
2019-04-04T15:14:02.901Z,63.95
2019-04-04T15:16:32.699Z,64.07
2019-04-04T15:19:01.273Z,64.73
2019-04-04T15:21:29.841Z,64.51
2019-04-04T15:23:58.302Z,64.62
2019-04-04T15:26:26.955Z,64.75
2019-04-04T15:28:55.783Z,64.86
2019-04-04T15:31:24.228Z,64.63
2019-04-04T15:33:52.709Z,64.76
2019-04-04T15:36:21.329Z,64.87
2019-04-04T15:38:49.839Z,65.05
2019-04-04T15:41:18.379Z,64.93
2019-04-04T15:43:46.846Z,64.95
2019-04-04T15:46:15.705Z,65.03
2019-04-04T15:48:47.231Z,65.17
2019-04-04T15:51:15.791Z,65.12
2019-04-04T15:53:44.309Z,65.63
2019-04-04T15:56:16.783Z,65.72
2019-04-04T15:58:45.295Z,65.61
2019-04-04T16:01:13.764Z,65.50
2019-04-04T16:03:42.266Z,65.89
2019-04-04T16:06:10.755Z,65.81
2019-04-04T16:08:39.309Z,65.70
2019-04-04T16:14:28.199Z,65.95
2019-04-04T16:16:56.668Z,66.20
2019-04-04T16:19:25.186Z,66.46
2019-04-04T16:21:53.673Z,66.83
2019-04-04T16:24:23.683Z,67.06
2019-04-04T16:26:52.208Z,67.13
2019-04-04T16:29:24.801Z,67.18
2019-04-04T16:31:53.359Z,67.44
2019-04-04T16:34:21.867Z,67.38
2019-04-04T16:36:50.436Z,67.47
2019-04-04T16:39:18.997Z,67.74
2019-04-04T16:41:47.447Z,67.91
2019-04-04T16:44:16.516Z,67.69
2019-04-04T16:46:45.013Z,67.95
2019-04-04T16:49:13.522Z,67.85
2019-04-04T16:51:42.008Z,68.02
2019-04-04T16:54:10.482Z,68.03
2019-04-04T16:56:44.287Z,68.23
2019-04-04T16:59:12.819Z,67.95
2019-04-04T17:01:41.354Z,68.23
2019-04-04T17:04:09.907Z,68.54
2019-04-04T17:06:38.384Z,68.47
2019-04-04T17:09:08.003Z,68.52
2019-04-04T17:11:41.359Z,68.71
2019-04-04T17:14:09.509Z,68.87
2019-04-04T17:16:38.079Z,68.89
2019-04-04T17:19:06.639Z,69.02
2019-04-04T17:21:35.216Z,69.22
2019-04-04T17:24:03.782Z,69.16
2019-04-04T17:26:33.819Z,69.19
2019-04-04T17:29:02.316Z,69.35
2019-04-04T17:31:30.855Z,69.38
2019-04-04T17:33:59.736Z,69.54
2019-04-04T17:36:31.618Z,69.62
2019-04-04T17:39:00.648Z,69.85
2019-04-04T17:41:29.203Z,69.99
2019-04-04T17:44:02.326Z,70.01
2019-04-04T17:46:32.357Z,70.10
2019-04-04T17:49:01.068Z,70.26
2019-04-04T17:51:29.675Z,70.25
2019-04-04T17:53:58.295Z,70.30
2019-04-04T17:56:27.248Z,70.48
2019-04-04T17:59:00.200Z,70.33
2019-04-04T18:01:26.455Z,70.24
2019-04-04T18:03:54.963Z,70.21
2019-04-04T18:06:31.255Z,70.34
2019-04-04T18:09:02.236Z,70.42
2019-04-04T18:11:33.636Z,70.21
2019-04-04T18:14:02.188Z,70.21
2019-04-04T18:16:33.403Z,70.21
2019-04-04T18:19:02.082Z,70.35
2019-04-04T18:21:30.652Z,70.47
2019-04-04T18:23:59.190Z,70.49
2019-04-04T18:26:27.767Z,70.59
2019-04-04T18:28:56.265Z,70.89
2019-04-04T18:31:24.933Z,71.06
2019-04-04T18:33:53.895Z,71.05
2019-04-04T18:36:25.964Z,71.37
2019-04-04T18:38:54.468Z,71.83
2019-04-04T18:41:23.022Z,71.96
2019-04-04T18:43:53.607Z,72.26
2019-04-04T18:46:23.639Z,72.15
2019-04-04T18:48:52.165Z,72.44
2019-04-04T18:51:20.780Z,72.64
2019-04-04T18:53:49.335Z,72.55
2019-04-04T18:56:17.858Z,72.66
2019-04-04T18:58:47.962Z,73.31
2019-04-04T19:01:16.615Z,73.43
2019-04-04T19:03:48.444Z,73.86
2019-04-04T19:06:19.883Z,73.94
2019-04-04T19:08:50.577Z,73.86
2019-04-04T19:11:18.704Z,73.86
2019-04-04T19:13:47.207Z,73.96
2019-04-04T19:16:15.722Z,74.38
2019-04-04T19:18:44.201Z,74.50
2019-04-04T19:21:12.852Z,74.54
2019-04-04T19:23:49.037Z,74.63
2019-04-04T19:26:14.469Z,74.76
2019-04-04T19:28:51.593Z,74.27
2019-04-04T19:31:17.626Z,74.48
2019-04-04T19:33:45.729Z,74.44
2019-04-04T19:36:14.277Z,74.51
2019-04-04T19:38:42.844Z,74.61
2019-04-04T19:41:11.393Z,74.51
2019-04-04T19:43:39.882Z,74.51
2019-04-04T19:46:08.491Z,74.37
2019-04-04T19:48:37.007Z,74.45
2019-04-04T19:51:15.640Z,74.87
2019-04-04T19:53:44.126Z,74.76
2019-04-04T19:56:12.659Z,74.70
2019-04-04T19:58:44.247Z,74.71
2019-04-04T20:01:12.810Z,74.96
2019-04-04T20:03:41.311Z,74.70
2019-04-04T20:06:09.808Z,74.96
2019-04-04T20:08:38.305Z,75.10
2019-04-04T20:11:06.774Z,75.02
2019-04-04T20:13:35.251Z,74.88
2019-04-04T20:16:05.258Z,74.77
2019-04-04T20:18:33.826Z,74.91
2019-04-04T20:21:05.647Z,74.81
2019-04-04T20:23:34.125Z,75.24
2019-04-04T20:26:02.709Z,74.92
2019-04-04T20:28:32.691Z,74.79
2019-04-04T20:31:01.261Z,74.81
2019-04-04T20:33:29.758Z,74.80
2019-04-04T20:36:00.355Z,75.03
2019-04-04T20:38:28.885Z,74.89
2019-04-04T20:40:58.872Z,74.77
2019-04-04T20:43:27.360Z,75.08
2019-04-04T20:45:57.497Z,75.20
2019-04-04T20:48:26.047Z,75.17
2019-04-04T20:50:55.602Z,75.27
2019-04-04T20:53:24.041Z,75.37
2019-04-04T20:55:52.549Z,75.22
2019-04-04T20:58:21.027Z,75.47
2019-04-04T21:00:49.532Z,75.28
2019-04-04T21:03:18.016Z,75.43
2019-04-04T21:05:46.585Z,75.46
2019-04-04T21:08:15.047Z,75.20
2019-04-04T21:10:43.593Z,75.12
2019-04-04T21:13:12.118Z,75.08
2019-04-04T21:15:40.589Z,74.97
2019-04-04T21:18:09.116Z,74.92
2019-04-04T21:20:37.586Z,74.86
2019-04-04T21:23:06.167Z,75.01
2019-04-04T21:25:34.614Z,74.96
2019-04-04T21:28:03.103Z,74.99
2019-04-04T21:30:31.570Z,74.84
2019-04-04T21:33:00.354Z,74.79
2019-04-04T21:35:28.824Z,74.86
2019-04-04T21:37:59.810Z,74.84
2019-04-04T21:40:27.970Z,74.84
2019-04-04T21:42:56.535Z,74.89
2019-04-04T21:45:25.181Z,74.95
2019-04-04T21:47:53.716Z,74.76
2019-04-04T21:50:22.196Z,74.66
2019-04-04T21:52:50.711Z,74.63
2019-04-04T21:55:22.128Z,74.71
2019-04-04T21:57:50.638Z,74.76
2019-04-04T22:00:21.857Z,74.60
2019-04-04T22:02:53.647Z,74.88
2019-04-04T22:05:22.234Z,74.83
2019-04-04T22:07:50.716Z,74.87
2019-04-04T22:10:19.319Z,75.17
2019-04-04T22:12:47.881Z,74.94
2019-04-04T22:15:16.389Z,74.82
2019-04-04T22:17:44.907Z,74.91
2019-04-04T22:20:13.578Z,75.06
2019-04-04T22:22:42.149Z,75.18
2019-04-04T22:25:12.349Z,75.10
2019-04-04T22:27:40.964Z,75.42
2019-04-04T22:30:09.924Z,75.56
2019-04-04T22:32:38.480Z,75.54
2019-04-04T22:35:07.123Z,75.92
2019-04-04T22:37:36.184Z,76.18
2019-04-04T22:40:08.614Z,76.38
2019-04-04T22:42:37.118Z,76.73
2019-04-04T22:45:08.004Z,77.36
2019-04-04T22:47:36.796Z,77.43
2019-04-04T22:50:06.915Z,77.88
2019-04-04T22:52:35.451Z,77.54
2019-04-04T22:55:04.185Z,77.58
2019-04-04T22:57:32.665Z,77.75
2019-04-04T23:00:02.804Z,77.98
2019-04-04T23:02:31.375Z,78.19
2019-04-04T23:05:01.535Z,78.65
2019-04-04T23:07:32.789Z,78.63
2019-04-04T23:10:01.302Z,78.50
2019-04-04T23:12:32.424Z,78.42
2019-04-04T23:15:00.860Z,78.61
2019-04-04T23:17:29.369Z,78.72
2019-04-04T23:19:57.936Z,78.96
2019-04-04T23:22:26.440Z,78.75
2019-04-04T23:24:55.201Z,78.72
2019-04-04T23:27:23.846Z,79.04
2019-04-04T23:29:52.446Z,78.86
2019-04-04T23:32:22.480Z,79.08
2019-04-04T23:34:51.118Z,79.07
2019-04-04T23:37:19.603Z,79.12
2019-04-04T23:39:48.181Z,78.95
2019-04-04T23:42:18.341Z,79.00
2019-04-04T23:44:46.861Z,79.08
2019-04-04T23:47:15.380Z,78.92
2019-04-04T23:49:45.451Z,78.69
2019-04-04T23:52:15.549Z,78.91
2019-04-04T23:54:44.322Z,79.01
2019-04-04T23:57:12.807Z,78.63
2019-04-04T23:59:44.268Z,78.64
